Time;durP1;ratioP1;P1;durP2;ratioP2;P2;SDS_P1;SDS_P2;PMS_P1;PMS_P2;Temp;Humidity;BMP_temperature;BMP_pressure;BME280_temperature;BME280_humidity;BME280_pressure;Samples;Min_cycle;Max_cycle;Signal;HPM_P1;HPM_P2
2023/03/21 00:01:58;;;;;;;40.80;28.15;;;23.40;50.20;;;;;;4981851;28;20019;-62
2023/03/21 00:04:25;;;;;;;39.95;27.10;;;23.30;50.20;;;;;;4981867;28;20549;-62
2023/03/21 00:06:51;;;;;;;37.72;27.63;;;23.30;50.20;;;;;;4983240;28;20125;-62
2023/03/21 00:09:17;;;;;;;38.85;27.42;;;23.30;50.20;;;;;;4982852;28;20102;-62
2023/03/21 00:11:43;;;;;;;38.90;27.33;;;23.30;50.20;;;;;;4982039;28;20029;-62
2023/03/21 00:14:13;;;;;;;38.40;26.88;;;23.30;50.30;;;;;;4980550;28;20035;-61
2023/03/21 00:16:39;;;;;;;38.33;27.17;;;23.30;50.30;;;;;;4983169;28;20022;-61
2023/03/21 00:19:05;;;;;;;36.08;26.35;;;23.30;50.20;;;;;;4982531;28;20394;-61
2023/03/21 00:21:32;;;;;;;35.65;25.35;;;23.30;50.30;;;;;;4982338;28;20093;-62
2023/03/21 00:23:59;;;;;;;36.83;25.90;;;23.30;50.30;;;;;;4984212;28;20069;-62
2023/03/21 00:26:25;;;;;;;35.42;25.20;;;23.20;50.20;;;;;;4982075;28;20034;-62
2023/03/21 00:28:51;;;;;;;36.35;24.65;;;23.20;50.20;;;;;;4979843;28;20113;-61
2023/03/21 00:31:17;;;;;;;33.67;24.70;;;23.20;50.20;;;;;;4979371;28;20121;-60
2023/03/21 00:33:43;;;;;;;33.50;24.17;;;23.20;50.20;;;;;;4984764;28;20474;-61
2023/03/21 00:36:09;;;;;;;32.83;24.65;;;23.20;50.30;;;;;;4983917;28;20113;-63
2023/03/21 00:38:35;;;;;;;35.17;24.95;;;23.20;50.20;;;;;;4983031;28;20474;-61
2023/03/21 00:41:06;;;;;;;32.70;23.48;;;23.20;50.30;;;;;;4982137;28;20022;-61
2023/03/21 00:43:32;;;;;;;32.28;23.10;;;23.20;50.20;;;;;;4981619;28;20386;-61
2023/03/21 00:45:58;;;;;;;31.80;22.63;;;23.20;50.30;;;;;;4984145;28;20026;-61
2023/03/21 00:48:25;;;;;;;30.98;22.48;;;23.20;50.20;;;;;;4984193;28;20035;-62
2023/03/21 00:50:53;;;;;;;33.13;23.80;;;23.20;50.30;;;;;;4982733;28;20483;-62
2023/03/21 00:53:19;;;;;;;32.72;23.25;;;23.10;50.20;;;;;;4981374;28;20046;-61
2023/03/21 00:55:44;;;;;;;30.80;22.95;;;23.10;50.20;;;;;;4981288;28;20518;-62
2023/03/21 00:58:10;;;;;;;32.25;23.30;;;23.10;50.20;;;;;;4979565;28;20035;-62
2023/03/21 01:00:36;;;;;;;31.45;22.80;;;23.10;50.20;;;;;;4979782;28;20026;-61
2023/03/21 01:03:10;;;;;;;29.20;21.38;;;23.10;50.20;;;;;;4981753;28;20113;-61
2023/03/21 01:08:27;;;;;;;29.17;21.30;;;23.10;50.20;;;;;;4980523;28;20041;-62
2023/03/21 01:10:53;;;;;;;31.63;22.33;;;23.10;50.30;;;;;;4980733;28;20474;-62
2023/03/21 01:13:21;;;;;;;28.92;21.25;;;23.10;50.30;;;;;;4983665;28;20608;-62
2023/03/21 01:15:49;;;;;;;30.45;21.63;;;23.10;50.30;;;;;;4984474;28;20105;-62
2023/03/21 01:18:16;;;;;;;30.02;22.65;;;23.10;50.30;;;;;;4986934;28;20114;-62
2023/03/21 01:20:43;;;;;;;30.85;22.38;;;23.00;50.30;;;;;;4987731;28;20030;-62
2023/03/21 01:23:10;;;;;;;28.55;20.52;;;23.00;50.30;;;;;;4984642;28;20495;-62
2023/03/21 01:25:37;;;;;;;25.83;19.85;;;23.00;50.30;;;;;;4984985;28;20046;-62
2023/03/21 01:28:03;;;;;;;27.08;20.05;;;23.00;50.30;;;;;;4986587;28;20362;-62
2023/03/21 01:30:29;;;;;;;26.50;19.13;;;23.00;50.30;;;;;;4982903;28;20401;-62
2023/03/21 01:32:55;;;;;;;27.98;19.40;;;23.00;50.30;;;;;;4985331;28;20103;-61
2023/03/21 01:35:21;;;;;;;27.85;19.52;;;23.00;50.30;;;;;;4988417;28;20490;-61
2023/03/21 01:37:47;;;;;;;25.02;19.13;;;23.00;50.40;;;;;;4987617;28;20031;-61
2023/03/21 01:40:19;;;;;;;24.27;19.42;;;23.00;50.30;;;;;;4985742;28;20042;-61
2023/03/21 01:42:45;;;;;;;26.75;18.73;;;23.00;50.30;;;;;;4985723;28;20034;-61
2023/03/21 01:45:48;;;;;;;24.45;18.30;;;23.00;50.40;;;;;;4983027;28;20062;-61
2023/03/21 01:48:14;;;;;;;27.55;20.35;;;23.00;50.40;;;;;;4983716;28;20510;-61
2023/03/21 01:50:41;;;;;;;25.90;19.08;;;23.00;50.40;;;;;;4984524;28;20023;-61
2023/03/21 01:53:08;;;;;;;26.65;18.88;;;23.00;50.40;;;;;;4983131;28;20031;-62
2023/03/21 01:55:35;;;;;;;22.98;17.58;;;23.00;50.40;;;;;;4982481;28;20038;-61
2023/03/21 01:58:03;;;;;;;23.98;18.00;;;23.00;50.40;;;;;;4983677;28;20038;-61
2023/03/21 02:00:30;;;;;;;25.45;19.23;;;22.90;50.40;;;;;;4985609;28;20031;-62
2023/03/21 02:02:58;;;;;;;24.20;17.88;;;22.90;50.40;;;;;;4985785;28;20036;-60
2023/03/21 02:05:29;;;;;;;26.02;18.13;;;23.00;50.50;;;;;;4985100;28;20034;-61
2023/03/21 02:07:55;;;;;;;24.50;17.42;;;22.90;51.00;;;;;;4983950;28;20042;-62
2023/03/21 02:10:21;;;;;;;23.50;16.33;;;22.90;50.40;;;;;;4984228;28;20028;-62
2023/03/21 02:12:47;;;;;;;21.27;16.77;;;22.90;50.40;;;;;;4983559;28;20030;-62
2023/03/21 02:15:14;;;;;;;22.33;16.05;;;22.90;50.50;;;;;;4986740;28;20034;-62
2023/03/21 02:18:01;;;;;;;24.13;17.50;;;22.90;50.50;;;;;;4988414;28;20427;-62
2023/03/21 02:20:53;;;;;;;26.30;17.90;;;22.90;50.50;;;;;;4984563;28;20026;-61
2023/03/21 02:23:33;;;;;;;22.15;16.30;;;22.90;50.50;;;;;;4987387;28;20034;-61
2023/03/21 02:25:59;;;;;;;19.20;15.70;;;22.90;50.50;;;;;;4987927;28;20069;-61
2023/03/21 02:28:31;;;;;;;22.27;16.63;;;22.80;50.40;;;;;;4984379;28;20073;-61
2023/03/21 02:31:25;;;;;;;20.77;14.85;;;22.90;50.50;;;;;;4984302;28;20057;-61
2023/03/21 02:34:12;;;;;;;21.08;15.30;;;22.80;50.40;;;;;;4984978;28;20027;-61
2023/03/21 02:36:49;;;;;;;21.48;15.43;;;22.90;50.50;;;;;;4986110;28;20487;-61
2023/03/21 02:39:25;;;;;;;21.25;15.98;;;22.80;50.50;;;;;;4984678;28;20034;-62
2023/03/21 02:42:14;;;;;;;21.13;15.13;;;22.80;50.50;;;;;;4985177;28;20100;-62
2023/03/21 02:44:56;;;;;;;;;;;22.80;50.50;;;;;;4987281;28;20026;-62
2023/03/21 02:47:30;;;;;;;18.45;14.07;;;22.80;50.50;;;;;;4983042;28;20399;-62
2023/03/21 02:50:25;;;;;;;20.80;15.23;;;22.80;50.50;;;;;;4983610;28;20483;-62
2023/03/21 02:52:53;;;;;;;20.02;14.75;;;22.80;50.50;;;;;;4983887;28;20078;-61
2023/03/21 02:55:24;;;;;;;18.08;13.73;;;22.70;50.50;;;;;;4983434;28;20381;-61
2023/03/21 02:57:52;;;;;;;17.83;13.82;;;22.80;50.50;;;;;;4985407;28;20023;-62
2023/03/21 03:00:21;;;;;;;16.95;13.45;;;22.80;50.50;;;;;;4984250;28;20590;-62
2023/03/21 03:02:49;;;;;;;;;;;22.70;50.50;;;;;;4984177;28;20038;-62
2023/03/21 03:05:21;;;;;;;18.25;14.10;;;22.70;50.50;;;;;;4982439;28;20551;-61
2023/03/21 03:08:11;;;;;;;20.95;14.43;;;22.70;51.00;;;;;;4986650;28;20382;-62
2023/03/21 03:10:45;;;;;;;;;;;22.80;50.60;;;;;;4981545;28;20031;-61
2023/03/21 03:13:33;;;;;;;17.77;13.10;;;22.70;50.50;;;;;;4984366;28;20277;-62
2023/03/21 03:15:59;;;;;;;17.38;13.00;;;22.70;50.50;;;;;;4984813;28;20031;-62
2023/03/21 03:18:42;;;;;;;16.70;12.88;;;22.70;50.60;;;;;;4983464;28;20097;-62
2023/03/21 03:21:35;;;;;;;16.92;13.32;;;22.70;50.50;;;;;;4982640;28;20042;-62
2023/03/21 03:24:16;;;;;;;17.52;12.93;;;22.70;50.60;;;;;;4983605;28;20034;-62
2023/03/21 03:26:45;;;;;;;17.45;12.50;;;22.70;50.50;;;;;;4982826;28;20521;-62
2023/03/21 03:29:17;;;;;;;16.58;11.95;;;22.70;50.60;;;;;;4983581;28;20064;-61
2023/03/21 03:32:05;;;;;;;16.67;12.70;;;22.70;50.60;;;;;;4987285;28;20033;-61
2023/03/21 03:34:38;;;;;;;16.42;11.88;;;22.70;50.60;;;;;;4983883;28;20037;-61
2023/03/21 03:37:08;;;;;;;15.70;11.98;;;22.70;50.60;;;;;;4980205;28;20106;-61
2023/03/21 03:39:42;;;;;;;15.57;11.80;;;22.70;50.60;;;;;;4982446;28;20467;-60
2023/03/21 03:42:15;;;;;;;14.60;11.52;;;22.60;50.50;;;;;;4981972;28;20049;-61
2023/03/21 03:44:41;;;;;;;15.75;11.32;;;22.70;50.60;;;;;;4981792;28;20037;-61
2023/03/21 03:47:31;;;;;;;14.18;10.95;;;22.70;50.50;;;;;;4978844;28;20037;-61
2023/03/21 03:50:04;;;;;;;14.25;11.05;;;22.70;50.60;;;;;;4979615;28;20074;-61
2023/03/21 03:52:36;;;;;;;15.27;11.50;;;22.60;50.50;;;;;;4980677;28;20031;-61
2023/03/21 03:55:02;;;;;;;14.57;10.98;;;22.70;50.50;;;;;;4980947;28;20110;-61
2023/03/21 03:57:29;;;;;;;13.52;10.68;;;22.60;50.50;;;;;;4981727;28;20347;-61
2023/03/21 03:59:54;;;;;;;14.05;11.02;;;22.60;50.50;;;;;;4983501;28;20031;-61
2023/03/21 04:02:20;;;;;;;14.48;10.27;;;22.60;51.00;;;;;;4981654;28;20045;-61
2023/03/21 04:04:47;;;;;;;13.68;10.80;;;22.60;50.50;;;;;;4985123;28;20034;-61
2023/03/21 04:07:13;;;;;;;12.38;9.73;;;22.60;50.50;;;;;;4984312;28;20034;-60
2023/03/21 04:09:39;;;;;;;14.27;10.35;;;22.60;50.50;;;;;;4983640;28;20138;-62
2023/03/21 04:12:04;;;;;;;13.77;10.52;;;22.60;50.50;;;;;;4982917;28;20106;-62
2023/03/21 04:14:30;;;;;;;15.52;11.35;;;22.60;50.50;;;;;;4987231;28;20727;-62
2023/03/21 04:16:56;;;;;;;14.43;10.82;;;22.60;50.50;;;;;;4982556;28;20034;-62
2023/03/21 04:19:21;;;;;;;13.25;10.70;;;22.60;50.50;;;;;;4984370;28;21048;-62
2023/03/21 04:21:47;;;;;;;14.00;10.48;;;22.60;50.50;;;;;;4982893;28;20037;-62
2023/03/21 04:24:13;;;;;;;14.18;11.20;;;22.60;50.50;;;;;;4982872;28;20065;-62
2023/03/21 04:26:39;;;;;;;12.48;9.98;;;22.60;50.50;;;;;;4982487;28;20601;-61
2023/03/21 04:29:05;;;;;;;13.07;10.07;;;22.60;50.50;;;;;;4983742;28;20031;-61
2023/03/21 04:31:32;;;;;;;12.20;9.98;;;22.60;50.50;;;;;;4978684;28;20032;-61
2023/03/21 04:33:59;;;;;;;12.43;9.52;;;22.50;50.50;;;;;;4982315;28;20023;-62
2023/03/21 04:36:32;;;;;;;13.45;10.25;;;22.60;50.50;;;;;;4982297;28;20034;-62
2023/03/21 04:39:00;;;;;;;12.80;9.93;;;22.50;50.50;;;;;;4996249;28;20042;-61
2023/03/21 04:41:27;;;;;;;13.15;10.02;;;22.60;50.60;;;;;;4979686;28;20394;-62
2023/03/21 04:43:53;;;;;;;12.93;9.75;;;22.60;50.50;;;;;;4981049;28;20031;-62
2023/03/21 04:46:19;;;;;;;12.27;9.90;;;22.60;50.50;;;;;;4982217;28;20062;-62
2023/03/21 04:48:46;;;;;;;12.77;9.38;;;22.60;50.50;;;;;;4984614;28;20069;-62
2023/03/21 04:51:11;;;;;;;13.02;10.02;;;22.60;50.50;;;;;;4986098;28;20558;-62
2023/03/21 04:53:38;;;;;;;11.68;9.27;;;22.60;50.50;;;;;;4983060;28;20137;-62
2023/03/21 04:56:05;;;;;;;12.07;9.15;;;22.60;50.50;;;;;;4986863;28;20109;-62
2023/03/21 04:58:31;;;;;;;11.52;9.00;;;22.50;50.50;;;;;;4986262;28;20134;-62
2023/03/21 05:00:56;;;;;;;11.48;8.80;;;22.50;50.50;;;;;;4985598;28;20494;-62
2023/03/21 05:03:23;;;;;;;12.18;9.52;;;22.50;50.50;;;;;;4988513;28;20042;-62
2023/03/21 05:05:49;;;;;;;11.63;9.20;;;22.50;50.50;;;;;;4987400;28;20030;-62
2023/03/21 05:08:15;;;;;;;11.70;9.13;;;22.50;50.50;;;;;;4986043;28;20035;-62
2023/03/21 05:10:41;;;;;;;11.95;9.73;;;22.50;50.60;;;;;;4986895;28;20042;-62
2023/03/21 05:13:07;;;;;;;11.48;9.25;;;22.50;50.60;;;;;;4985915;28;20030;-62
2023/03/21 05:15:33;;;;;;;11.73;8.88;;;22.50;50.60;;;;;;4990768;28;20031;-61
2023/03/21 05:18:10;;;;;;;13.10;10.38;;;22.50;50.60;;;;;;4985901;28;20549;-61
2023/03/21 05:20:41;;;;;;;11.82;9.02;;;22.50;50.60;;;;;;4985977;28;20030;-61
2023/03/21 05:23:10;;;;;;;11.57;8.98;;;22.50;50.60;;;;;;4987443;28;20027;-61
2023/03/21 05:25:39;;;;;;;11.75;8.75;;;22.50;50.60;;;;;;4986969;28;20125;-61
2023/03/21 05:28:06;;;;;;;11.70;9.13;;;22.50;50.60;;;;;;4985977;28;20030;-61
2023/03/21 05:30:32;;;;;;;11.00;8.65;;;22.50;50.70;;;;;;4985364;28;20030;-61
2023/03/21 05:32:58;;;;;;;11.73;9.30;;;22.50;50.70;;;;;;4987945;28;20031;-61
2023/03/21 05:35:25;;;;;;;10.80;8.27;;;22.50;50.70;;;;;;4986340;28;20026;-62
2023/03/21 05:37:51;;;;;;;12.02;9.35;;;22.50;50.70;;;;;;4986624;28;20342;-62
2023/03/21 05:40:17;;;;;;;11.20;8.50;;;22.50;50.70;;;;;;4982923;28;20086;-62
2023/03/21 05:42:42;;;;;;;11.48;8.73;;;22.50;50.70;;;;;;4980991;28;20434;-62
2023/03/21 05:45:08;;;;;;;10.18;8.25;;;22.50;50.80;;;;;;4984178;28;20101;-62
2023/03/21 05:47:34;;;;;;;9.75;7.85;;;22.40;50.70;;;;;;4988056;28;20038;-62
2023/03/21 05:50:00;;;;;;;10.27;8.15;;;22.40;50.80;;;;;;4986316;28;20030;-62
2023/03/21 05:52:27;;;;;;;10.27;7.85;;;22.50;50.80;;;;;;4982204;28;20512;-62
2023/03/21 05:54:52;;;;;;;9.52;8.23;;;22.40;50.70;;;;;;4985528;28;20503;-62
2023/03/21 05:57:18;;;;;;;10.05;7.63;;;22.50;50.80;;;;;;4983746;28;20033;-63
2023/03/21 05:59:44;;;;;;;9.93;8.15;;;22.40;50.80;;;;;;4986546;28;20026;-62
2023/03/21 06:02:10;;;;;;;11.32;8.02;;;22.50;51.40;;;;;;4983533;28;20582;-62
2023/03/21 06:04:36;;;;;;;11.70;9.00;;;22.40;51.30;;;;;;4983776;28;20103;-62
2023/03/21 06:07:02;;;;;;;10.77;8.43;;;22.40;50.80;;;;;;4984827;28;20034;-62
2023/03/21 06:09:28;;;;;;;11.07;8.68;;;22.40;50.80;;;;;;4985607;28;20121;-62
2023/03/21 06:11:56;;;;;;;9.68;7.88;;;22.40;50.80;;;;;;4991285;28;20435;-63
2023/03/21 06:14:22;;;;;;;10.50;8.15;;;22.40;50.80;;;;;;4986104;28;20039;-62
2023/03/21 06:16:49;;;;;;;9.90;7.70;;;22.40;50.80;;;;;;4982489;28;20530;-62
2023/03/21 06:19:15;;;;;;;10.27;8.25;;;22.40;50.80;;;;;;4988291;28;20023;-62
2023/03/21 06:21:41;;;;;;;10.23;8.48;;;22.40;50.80;;;;;;4982280;28;20058;-62
2023/03/21 06:24:07;;;;;;;10.52;7.90;;;22.40;50.80;;;;;;4982403;28;20510;-62
2023/03/21 06:26:33;;;;;;;10.18;7.90;;;22.40;50.90;;;;;;4984690;28;20058;-62
2023/03/21 06:28:58;;;;;;;9.40;7.47;;;22.40;51.00;;;;;;4983312;28;20492;-62
2023/03/21 06:31:25;;;;;;;9.88;7.63;;;22.40;51.00;;;;;;4990319;28;20018;-63
2023/03/21 06:33:51;;;;;;;10.05;7.72;;;22.40;51.20;;;;;;4988006;28;20022;-62
2023/03/21 06:36:17;;;;;;;11.88;8.75;;;22.40;51.10;;;;;;4984941;28;20022;-62
2023/03/21 06:38:43;;;;;;;11.32;8.05;;;22.40;51.20;;;;;;4983540;28;20030;-62
2023/03/21 06:41:09;;;;;;;11.63;8.32;;;22.40;51.10;;;;;;4990610;28;20033;-63
2023/03/21 06:43:35;;;;;;;10.52;7.47;;;22.40;51.10;;;;;;4983097;28;20034;-62
2023/03/21 06:46:02;;;;;;;8.52;6.85;;;22.40;51.10;;;;;;4984543;28;20026;-63
2023/03/21 06:48:28;;;;;;;9.88;7.80;;;22.40;51.10;;;;;;4983607;28;20034;-63
2023/03/21 06:50:55;;;;;;;9.80;7.53;;;22.40;51.10;;;;;;4985101;28;20037;-62
2023/03/21 06:53:28;;;;;;;9.60;7.78;;;22.40;51.10;;;;;;4984606;28;20018;-62
2023/03/21 06:55:55;;;;;;;9.95;7.75;;;22.40;51.10;;;;;;4984309;28;20548;-63
2023/03/21 06:58:21;;;;;;;9.90;7.53;;;22.40;51.10;;;;;;4983386;28;20033;-62
2023/03/21 07:00:47;;;;;;;9.75;7.57;;;22.40;51.10;;;;;;4983871;28;20096;-63
2023/03/21 07:03:14;;;;;;;9.73;7.47;;;22.40;51.10;;;;;;4982610;28;20362;-62
2023/03/21 07:05:40;;;;;;;9.45;6.85;;;22.40;51.10;;;;;;4981844;28;20106;-62
2023/03/21 07:08:11;;;;;;;10.07;7.43;;;22.40;51.10;;;;;;4981935;28;20038;-62
2023/03/21 07:10:41;;;;;;;9.80;7.47;;;22.40;51.10;;;;;;4982712;28;20057;-62
2023/03/21 07:13:07;;;;;;;9.77;7.57;;;22.40;51.10;;;;;;4982394;28;20100;-62
2023/03/21 07:15:36;;;;;;;9.32;6.75;;;22.40;51.10;;;;;;4983054;28;20100;-62
2023/03/21 07:18:03;;;;;;;9.60;7.30;;;22.40;51.10;;;;;;4982258;28;20027;-62
2023/03/21 07:20:29;;;;;;;9.65;7.43;;;22.40;51.10;;;;;;4984652;28;20034;-62
2023/03/21 07:22:55;;;;;;;8.98;6.93;;;22.40;51.10;;;;;;4985558;28;20023;-63
2023/03/21 07:25:21;;;;;;;8.45;6.60;;;22.40;51.10;;;;;;4984569;28;20041;-62
2023/03/21 07:27:47;;;;;;;8.98;6.65;;;22.30;51.10;;;;;;4980894;28;20478;-62
2023/03/21 07:30:13;;;;;;;9.38;7.03;;;22.30;51.10;;;;;;4980906;28;20479;-63
2023/03/21 07:32:39;;;;;;;9.18;6.88;;;22.30;51.10;;;;;;4984157;28;20027;-62
2023/03/21 07:35:10;;;;;;;8.75;6.85;;;22.30;51.00;;;;;;4982753;28;20039;-62
2023/03/21 07:37:36;;;;;;;9.02;6.82;;;22.30;51.00;;;;;;4982285;28;20053;-62
2023/03/21 07:40:08;;;;;;;7.25;6.18;;;22.30;51.10;;;;;;4982671;28;20057;-62
2023/03/21 07:42:34;;;;;;;8.38;6.65;;;22.40;51.10;;;;;;4982782;28;20512;-62
2023/03/21 07:45:00;;;;;;;9.30;6.63;;;22.30;51.60;;;;;;4982396;28;20493;-62
2023/03/21 07:47:25;;;;;;;8.57;6.35;;;22.30;51.10;;;;;;4981623;28;20035;-62
2023/03/21 07:49:51;;;;;;;7.43;6.00;;;22.30;51.00;;;;;;4983297;28;20470;-63
2023/03/21 07:52:17;;;;;;;8.70;6.45;;;22.30;51.10;;;;;;4982372;28;20098;-62
2023/03/21 07:54:42;;;;;;;7.78;5.95;;;22.30;51.00;;;;;;4983293;28;20061;-62
2023/03/21 07:57:08;;;;;;;8.57;6.50;;;22.30;51.00;;;;;;4984425;28;20513;-63
2023/03/21 07:59:33;;;;;;;8.75;6.53;;;22.30;51.00;;;;;;4978756;28;20037;-63
2023/03/21 08:01:59;;;;;;;8.32;6.57;;;22.30;51.00;;;;;;4982773;28;20483;-62
2023/03/21 08:04:25;;;;;;;8.40;6.43;;;22.30;51.00;;;;;;4982052;28;20084;-62
2023/03/21 08:06:50;;;;;;;8.80;6.45;;;22.30;51.00;;;;;;4980765;28;20033;-63
2023/03/21 08:09:16;;;;;;;7.60;6.07;;;22.30;51.00;;;;;;4980478;28;20058;-62
2023/03/21 08:11:42;;;;;;;8.98;6.05;;;22.30;51.00;;;;;;4980239;28;20541;-62
2023/03/21 08:14:07;;;;;;;7.85;6.10;;;22.30;51.00;;;;;;4982710;28;20038;-63
2023/03/21 08:16:33;;;;;;;8.68;6.20;;;22.30;51.00;;;;;;4982389;28;20030;-63
2023/03/21 08:18:59;;;;;;;8.15;6.07;;;22.30;51.10;;;;;;4983122;28;20116;-62
2023/03/21 08:21:25;;;;;;;7.45;5.97;;;22.30;51.00;;;;;;4982040;28;20034;-62
2023/03/21 08:23:52;;;;;;;8.00;6.22;;;22.30;51.00;;;;;;4980121;28;20034;-62
2023/03/21 08:26:18;;;;;;;7.82;6.20;;;22.30;51.00;;;;;;4982988;28;20037;-62
2023/03/21 08:28:45;;;;;;;7.32;6.00;;;22.30;51.00;;;;;;4981065;28;20058;-62
2023/03/21 08:31:12;;;;;;;7.90;6.35;;;22.30;51.00;;;;;;4978266;28;20046;-63
2023/03/21 08:33:38;;;;;;;7.63;6.13;;;22.30;51.00;;;;;;4980698;28;20031;-62
2023/03/21 08:36:05;;;;;;;8.00;5.93;;;22.30;51.00;;;;;;4982622;28;20564;-62
2023/03/21 08:38:32;;;;;;;8.48;6.07;;;22.30;51.00;;;;;;4982452;28;20494;-63
2023/03/21 08:41:01;;;;;;;7.10;5.78;;;22.30;51.00;;;;;;4983231;28;20391;-62
2023/03/21 08:43:28;;;;;;;8.15;6.13;;;22.30;51.00;;;;;;4979169;28;20592;-63
2023/03/21 08:45:55;;;;;;;7.93;6.07;;;22.30;51.00;;;;;;4980040;28;20034;-62
2023/03/21 08:48:21;;;;;;;7.85;5.50;;;22.30;51.00;;;;;;4978759;28;20059;-62
2023/03/21 08:50:47;;;;;;;6.65;5.07;;;22.30;51.50;;;;;;4982572;28;20102;-63
2023/03/21 08:53:13;;;;;;;6.70;5.18;;;22.30;51.00;;;;;;4983145;28;20546;-62
2023/03/21 08:55:39;;;;;;;7.75;5.78;;;22.30;51.00;;;;;;4980834;28;20037;-63
2023/03/21 08:58:06;;;;;;;6.43;5.38;;;22.30;51.00;;;;;;4981198;28;20038;-63
2023/03/21 09:00:31;;;;;;;7.88;5.65;;;22.30;51.00;;;;;;4981621;28;20039;-63
2023/03/21 09:02:57;;;;;;;7.57;5.50;;;22.30;51.00;;;;;;4983567;28;20390;-62
2023/03/21 09:05:24;;;;;;;6.30;4.80;;;22.30;51.00;;;;;;4981680;28;20022;-62
2023/03/21 09:07:51;;;;;;;6.18;4.78;;;22.30;51.00;;;;;;4980073;28;20035;-63
2023/03/21 09:10:20;;;;;;;5.93;4.50;;;22.30;51.10;;;;;;4981854;28;20394;-62
2023/03/21 09:12:46;;;;;;;5.90;4.87;;;22.30;51.00;;;;;;4981740;28;20061;-63
2023/03/21 09:15:13;;;;;;;6.30;4.63;;;22.30;51.10;;;;;;4981501;28;20034;-63
2023/03/21 09:17:42;;;;;;;6.35;4.90;;;22.30;51.00;;;;;;4987331;28;20026;-63
2023/03/21 09:20:17;;;;;;;6.90;4.97;;;22.30;51.00;;;;;;4980052;28;20022;-63
2023/03/21 09:22:48;;;;;;;6.80;4.60;;;22.30;51.10;;;;;;4995889;28;20030;-62
2023/03/21 09:25:15;;;;;;;6.53;4.50;;;22.30;51.10;;;;;;4982866;28;20034;-63
2023/03/21 09:27:42;;;;;;;5.28;4.13;;;22.30;51.00;;;;;;4981644;28;20027;-62
2023/03/21 09:30:08;;;;;;;6.30;4.82;;;22.30;51.00;;;;;;4980688;28;20467;-63
2023/03/21 09:32:35;;;;;;;6.00;4.63;;;22.30;51.00;;;;;;4980985;28;20389;-63
2023/03/21 09:35:01;;;;;;;5.68;4.28;;;22.30;51.00;;;;;;4985425;28;20092;-62
2023/03/21 09:37:27;;;;;;;5.70;4.25;;;22.30;51.00;;;;;;4983697;28;20458;-63
2023/03/21 09:39:55;;;;;;;5.72;4.63;;;22.30;51.00;;;;;;4982068;28;20018;-62
2023/03/21 09:42:45;;;;;;;6.20;4.47;;;22.30;51.00;;;;;;4990960;28;20031;-62
2023/03/21 09:45:19;;;;;;;5.00;4.18;;;22.30;51.10;;;;;;4985779;28;20495;-63
2023/03/21 09:47:55;;;;;;;5.60;4.32;;;22.30;51.00;;;;;;4984085;28;20117;-62
2023/03/21 09:50:30;;;;;;;5.88;4.43;;;22.30;51.50;;;;;;4986878;28;20320;-63
2023/03/21 09:53:01;;;;;;;5.63;4.43;;;22.30;51.00;;;;;;4984796;28;20034;-63
2023/03/21 09:55:29;;;;;;;5.68;4.35;;;22.30;51.10;;;;;;4984431;28;20037;-63
2023/03/21 09:58:13;;;;;;;5.55;4.18;;;22.30;51.00;;;;;;4983470;28;20048;-63
2023/03/21 10:00:45;;;;;;;5.50;4.25;;;22.30;51.10;;;;;;4985130;28;20066;-63
2023/03/21 10:03:22;;;;;;;5.53;4.00;;;22.30;51.00;;;;;;4989315;28;20027;-62
2023/03/21 10:05:51;;;;;;;6.13;4.70;;;22.30;51.00;;;;;;4984627;28;20030;-63
2023/03/21 10:08:26;;;;;;;5.97;4.40;;;22.30;51.00;;;;;;4986466;28;20470;-63
2023/03/21 10:11:01;;;;;;;5.80;4.53;;;22.30;51.00;;;;;;4985208;28;20031;-63
2023/03/21 10:13:33;;;;;;;5.40;3.80;;;22.30;51.00;;;;;;4984569;28;20390;-62
2023/03/21 10:16:08;;;;;;;5.60;4.25;;;22.30;51.00;;;;;;4983078;28;20031;-63
2023/03/21 10:18:36;;;;;;;6.35;4.70;;;22.30;51.00;;;;;;4986604;28;20426;-63
2023/03/21 10:21:04;;;;;;;5.57;4.50;;;22.30;51.00;;;;;;4984671;28;20059;-64
2023/03/21 10:23:30;;;;;;;6.10;4.50;;;22.30;51.00;;;;;;4983455;28;20402;-62
2023/03/21 10:26:01;;;;;;;5.38;4.45;;;22.30;51.00;;;;;;4984141;28;20105;-63
2023/03/21 10:28:31;;;;;;;5.40;4.28;;;22.30;51.00;;;;;;4986147;28;20034;-63
2023/03/21 10:31:03;;;;;;;5.28;3.97;;;22.30;51.00;;;;;;4985396;28;20030;-62
2023/03/21 10:33:34;;;;;;;5.82;4.40;;;22.30;51.50;;;;;;4983475;28;20038;-63
2023/03/21 10:36:10;;;;;;;5.43;4.10;;;22.30;51.00;;;;;;4983979;28;20035;-62
2023/03/21 10:38:39;;;;;;;4.90;3.80;;;22.30;51.00;;;;;;4982582;28;20328;-63
2023/03/21 10:41:05;;;;;;;;;;;22.30;51.00;;;;;;4985468;28;20038;-63
2023/03/21 10:43:34;;;;;;;5.00;3.80;;;22.30;51.00;;;;;;4983226;28;19910;-62
2023/03/21 10:46:16;;;;;;;4.85;3.45;;;22.30;51.00;;;;;;4984666;28;20050;-63
2023/03/21 10:48:45;;;;;;;5.50;4.03;;;22.30;51.00;;;;;;4981372;28;20042;-63
2023/03/21 10:51:16;;;;;;;5.32;4.00;;;22.30;50.90;;;;;;4984980;28;20033;-62
2023/03/21 10:53:50;;;;;;;5.50;4.05;;;22.30;50.90;;;;;;4981406;28;20046;-63
2023/03/21 10:56:16;;;;;;;5.03;3.72;;;22.30;50.90;;;;;;4983823;28;20033;-62
2023/03/21 10:58:45;;;;;;;6.07;3.83;;;22.30;50.90;;;;;;4983537;28;20082;-63
2023/03/21 11:01:14;;;;;;;;;;;22.40;51.00;;;;;;4985154;28;20059;-63
2023/03/21 11:03:43;;;;;;;5.45;3.88;;;22.40;50.90;;;;;;4984739;28;19913;-63
2023/03/21 11:06:30;;;;;;;4.97;3.90;;;22.40;50.90;;;;;;4985301;28;20035;-63
2023/03/21 11:09:19;;;;;;;4.95;3.85;;;22.30;50.90;;;;;;4984689;28;20035;-63
2023/03/21 11:11:53;;;;;;;5.13;3.83;;;22.40;50.90;;;;;;4985798;28;20045;-63
2023/03/21 11:14:31;;;;;;;5.90;4.18;;;22.40;51.00;;;;;;4981797;28;20038;-63
2023/03/21 11:16:57;;;;;;;5.05;3.85;;;22.40;51.00;;;;;;4982557;28;20030;-63
2023/03/21 11:19:31;;;;;;;4.90;3.67;;;22.40;51.10;;;;;;4984688;28;20029;-63
2023/03/21 11:22:07;;;;;;;5.05;3.88;;;22.40;51.00;;;;;;4987357;28;20030;-63
2023/03/21 11:24:34;;;;;;;5.28;3.95;;;22.40;51.00;;;;;;4981160;28;20034;-63
2023/03/21 11:27:04;;;;;;;4.45;3.33;;;22.40;51.00;;;;;;4983089;28;20509;-63
2023/03/21 11:29:35;;;;;;;5.47;4.15;;;22.50;51.10;;;;;;4985023;28;20084;-63
2023/03/21 11:32:20;;;;;;;5.20;3.70;;;22.50;51.10;;;;;;4983936;28;20031;-63
2023/03/21 11:34:57;;;;;;;5.10;3.83;;;22.50;51.20;;;;;;4983628;28;20126;-63
2023/03/21 11:37:27;;;;;;;5.35;3.88;;;22.40;51.10;;;;;;4984190;28;20025;-63
2023/03/21 11:40:16;;;;;;;5.40;4.00;;;22.50;51.10;;;;;;4982352;28;20498;-62
2023/03/21 11:42:45;;;;;;;4.78;3.83;;;22.50;51.10;;;;;;4985319;28;20502;-63
2023/03/21 11:45:17;;;;;;;5.03;3.70;;;22.50;51.10;;;;;;4983696;28;20482;-63
2023/03/21 11:47:44;;;;;;;4.53;3.47;;;22.50;51.10;;;;;;4981408;28;20328;-62
2023/03/21 11:50:16;;;;;;;4.45;3.55;;;22.50;51.10;;;;;;4979573;28;20034;-63
2023/03/21 11:52:53;;;;;;;4.65;3.83;;;22.50;51.10;;;;;;4985139;28;20054;-62
2023/03/21 11:55:52;;;;;;;4.53;3.53;;;22.50;51.10;;;;;;4985736;28;20482;-63
2023/03/21 11:58:17;;;;;;;;;;;22.50;51.10;;;;;;4981744;28;20047;-62
2023/03/21 12:01:11;;;;;;;4.78;3.60;;;22.50;51.10;;;;;;4981441;28;19959;-63
2023/03/21 12:04:01;;;;;;;4.60;3.40;;;22.60;51.20;;;;;;4983337;28;20027;-63
2023/03/21 12:06:51;;;;;;;5.30;3.60;;;22.50;51.10;;;;;;4982515;28;20033;-63
2023/03/21 12:09:25;;;;;;;3.90;2.88;;;22.60;51.20;;;;;;4980685;28;20038;-62
2023/03/21 12:11:58;;;;;;;4.47;3.63;;;22.60;51.10;;;;;;4981903;28;20542;-63
2023/03/21 12:14:38;;;;;;;4.25;3.00;;;22.60;51.10;;;;;;4982796;28;20023;-63
2023/03/21 12:17:37;;;;;;;4.78;3.65;;;22.60;51.10;;;;;;4982295;28;20037;-63
2023/03/21 12:20:18;;;;;;;4.00;3.10;;;22.60;51.10;;;;;;4980779;28;20022;-63
2023/03/21 12:22:58;;;;;;;4.82;3.45;;;22.60;51.10;;;;;;4984489;28;20023;-63
2023/03/21 12:25:45;;;;;;;4.40;3.22;;;22.60;51.10;;;;;;4983018;28;20041;-63
2023/03/21 12:28:29;;;;;;;4.60;3.22;;;22.60;51.00;;;;;;4981930;28;20027;-63
2023/03/21 12:30:59;;;;;;;4.28;3.17;;;22.60;51.00;;;;;;4983514;28;20057;-63
2023/03/21 12:33:43;;;;;;;4.47;3.22;;;22.70;51.10;;;;;;4984448;28;20026;-63
2023/03/21 12:36:40;;;;;;;4.55;3.17;;;22.70;51.00;;;;;;4981637;28;20033;-63
2023/03/21 12:39:09;;;;;;;4.40;3.28;;;22.70;51.00;;;;;;4982602;28;20053;-63
2023/03/21 12:42:06;;;;;;;4.22;3.22;;;22.70;51.00;;;;;;4982214;28;20026;-63
2023/03/21 12:44:37;;;;;;;4.70;3.50;;;22.70;50.90;;;;;;4983637;28;20034;-63
2023/03/21 12:47:10;;;;;;;4.38;3.28;;;22.70;50.90;;;;;;4983959;28;20066;-63
2023/03/21 12:50:14;;;;;;;4.85;3.95;;;22.70;50.90;;;;;;4984821;28;20065;-63
2023/03/21 12:52:49;;;;;;;5.78;4.50;;;22.80;50.90;;;;;;4985166;28;20475;-63
2023/03/21 12:55:21;;;;;;;6.30;4.47;;;22.70;50.80;;;;;;4983770;28;20027;-63
2023/03/21 12:57:49;;;;;;;5.38;4.30;;;22.70;50.80;;;;;;4984209;28;20031;-63
2023/03/21 13:00:41;;;;;;;5.83;4.90;;;22.80;50.80;;;;;;4979421;28;20031;-63